Aviation Digital Data Service (ADDS)

Output produced by METARs form (0407 UTC 01 February 2015)
found at http://aviationweather.gov/adds/metars/
 
KRUT 312320Z 0100/0124 33007KT P6SM SKC 
     FM010700 VRB04KT P6SM BKN040 
     FM011500 34008KT P6SM SCT040 AMD LTD TO CLD VIS AND WIND